Observations for GUERNSEY AIRPORT, United Kingdom (EGJB)

EGJB 220720Z VRB01KT 9999 -RA FEW021 12/10 Q1020 RERA   
EGJB 220650Z 22005KT 9999 RA SCT020 12/09 Q1021 
EGJB 220620Z 24004KT 9999 -RA FEW020 13/10 Q1020
EGJB 220550Z 23005KT 9999 -RA FEW024 13/10 Q1021
EGJB 220520Z 25006KT 9999 -RA FEW024 13/10 Q1021
EGJB 220450Z 25006KT 9999 -RA FEW024 13/09 Q1021
EGJB 220420Z 25007KT 9999 FEW024 14/08 Q1021
EGJB 220350Z 26008KT 9999 FEW026 14/08 Q1021
EGJB 220320Z 26009KT 9999 FEW026 14/08 Q1021
EGJB 220250Z 26010KT 9999 FEW026 14/08 Q1022
EGJB 220150Z 26011KT 9999 FEW026 14/08 Q1021
EGJB 220050Z 26009KT 9999 FEW028 14/08 Q1022
EGJB 212350Z 27009KT 9999 FEW028 14/08 Q1022
EGJB 212250Z 27010KT 9999 FEW028 13/07 Q1022
EGJB 212150Z 27014KT 9999 FEW028 14/07 Q1022
EGJB 212050Z 27011KT 9999 SCT024 14/08 Q1021
EGJB 212020Z 27013KT 9999 FEW028 14/07 Q1021
EGJB 211950Z 27013KT 9999 FEW028 14/07 Q1021
EGJB 211920Z 27015KT 9999 FEW028 14/08 Q1021
EGJB 211850Z 27016KT 9999 FEW028 14/07 Q1020
EGJB 211820Z 27016KT 9999 FEW028 14/08 Q1020
EGJB 211750Z 27015KT 9999 FEW030 14/08 Q1019
EGJB 211720Z 27017KT 9999 FEW030 15/07 Q1019
EGJB 211650Z 27015KT 9999 FEW032 15/07 Q1019
EGJB 211620Z 28019KT 9999 FEW032 15/08 Q1019
EGJB 211550Z 27020KT 9999 FEW032 16/08 Q1018
EGJB 211520Z 27020KT 9999 SCT030 15/08 Q1019
EGJB 211450Z 27019KT 9999 FEW036 15/07 Q1018
EGJB 211420Z 28020KT 9999 FEW036 15/06 Q1018
EGJB 211350Z 27020KT 9999 FEW036 15/06 Q1018
EGJB 211320Z 27020KT 9999 VCSH FEW034 15/07 Q1018   
EGJB 211250Z 27017G30KT 9999 VCSH FEW035 13/11 Q1017
EGJB 211220Z 27022G32KT 9999 FEW034 16/05 Q1017 
EGJB 211150Z 27022KT 9999 FEW032 16/05 Q1017
EGJB 211120Z 28019KT 9999 FEW032 16/05 Q1016
EGJB 211050Z 28020KT 9999 FEW030 15/07 Q1016
EGJB 211020Z 28019KT 9999 FEW027TCU 15/07 Q1016 
EGJB 210950Z 29016KT 9999 VCSH FEW025CB BKN030 14/08 Q1015  
EGJB 210920Z 28018G30KT 9999 VCSH SCT029 15/06 Q1015
EGJB 210850Z 27019KT 9999 SCT030 14/07 Q1014
EGJB 210820Z 28017KT 9999 SCT032 14/07 Q1014
EGJB 210750Z 28020KT 9999 SCT030 13/05 Q1013
EGJB 210720Z 28018KT 9999 SCT027 13/06 Q1013
EGJB 210650Z 29016KT 9999 SCT027 12/07 Q1012